sensor_id;sensor_type;location;lat;lon;timestamp;pressure;altitude;pressure_sealevel;temperature;humidity
42671;BME280;28283;55.426;37.756;2023-04-23T00:04:14;99166.25;;;9.22;45.20
42671;BME280;28283;55.426;37.756;2023-04-23T00:09:18;99172.78;;;9.12;45.81
42671;BME280;28283;55.426;37.756;2023-04-23T00:14:20;99179.41;;;9.16;45.82
42671;BME280;28283;55.426;37.756;2023-04-23T00:19:21;99189.50;;;9.14;45.50
42671;BME280;28283;55.426;37.756;2023-04-23T00:24:22;99163.56;;;8.93;45.31
42671;BME280;28283;55.426;37.756;2023-04-23T00:29:22;99183.44;;;8.99;45.52
42671;BME280;28283;55.426;37.756;2023-04-23T00:34:23;99194.38;;;9.04;45.68
42671;BME280;28283;55.426;37.756;2023-04-23T00:39:23;99195.16;;;8.98;45.93
42671;BME280;28283;55.426;37.756;2023-04-23T00:44:24;99180.81;;;8.84;45.79
42671;BME280;28283;55.426;37.756;2023-04-23T00:49:25;99200.34;;;9.00;46.12
42671;BME280;28283;55.426;37.756;2023-04-23T00:54:26;99201.53;;;8.97;45.84
42671;BME280;28283;55.426;37.756;2023-04-23T00:59:27;99209.19;;;9.00;45.87
42671;BME280;28283;55.426;37.756;2023-04-23T01:04:29;99208.63;;;9.05;45.80
42671;BME280;28283;55.426;37.756;2023-04-23T01:09:31;99202.63;;;9.03;45.17
42671;BME280;28283;55.426;37.756;2023-04-23T01:14:33;99205.59;;;9.14;45.13
42671;BME280;28283;55.426;37.756;2023-04-23T01:19:34;99210.53;;;9.11;45.13
42671;BME280;28283;55.426;37.756;2023-04-23T01:24:36;99209.50;;;9.12;45.04
42671;BME280;28283;55.426;37.756;2023-04-23T01:29:38;99213.25;;;9.17;45.36
42671;BME280;28283;55.426;37.756;2023-04-23T01:34:39;99218.88;;;9.23;44.91
42671;BME280;28283;55.426;37.756;2023-04-23T01:39:40;99221.13;;;9.19;45.46
42671;BME280;28283;55.426;37.756;2023-04-23T01:44:41;99221.94;;;9.20;45.40
42671;BME280;28283;55.426;37.756;2023-04-23T01:49:41;99213.81;;;9.13;45.61
42671;BME280;28283;55.426;37.756;2023-04-23T01:54:42;99205.88;;;8.98;45.52
42671;BME280;28283;55.426;37.756;2023-04-23T01:59:42;99216.34;;;8.93;45.63
42671;BME280;28283;55.426;37.756;2023-04-23T02:04:44;99231.19;;;8.89;45.63
42671;BME280;28283;55.426;37.756;2023-04-23T02:09:45;99222.38;;;8.73;46.16
42671;BME280;28283;55.426;37.756;2023-04-23T02:14:45;99242.28;;;8.64;46.54
42671;BME280;28283;55.426;37.756;2023-04-23T02:19:46;99231.63;;;8.34;47.60
42671;BME280;28283;55.426;37.756;2023-04-23T02:24:47;99232.84;;;8.32;46.92
42671;BME280;28283;55.426;37.756;2023-04-23T02:29:47;99237.13;;;8.26;47.72
42671;BME280;28283;55.426;37.756;2023-04-23T02:34:48;99241.28;;;8.14;47.76
42671;BME280;28283;55.426;37.756;2023-04-23T02:39:48;99222.50;;;7.92;47.85
42671;BME280;28283;55.426;37.756;2023-04-23T02:44:49;99255.91;;;7.96;48.64
42671;BME280;28283;55.426;37.756;2023-04-23T02:54:50;99234.25;;;7.61;49.11
42671;BME280;28283;55.426;37.756;2023-04-23T02:59:51;99268.66;;;7.79;49.55
42671;BME280;28283;55.426;37.756;2023-04-23T03:04:51;99267.25;;;7.83;49.34
42671;BME280;28283;55.426;37.756;2023-04-23T03:09:52;99258.13;;;7.78;49.33
42671;BME280;28283;55.426;37.756;2023-04-23T03:14:52;99283.69;;;7.80;49.31
42671;BME280;28283;55.426;37.756;2023-04-23T03:19:53;99255.72;;;7.53;49.45
42671;BME280;28283;55.426;37.756;2023-04-23T03:24:54;99292.09;;;7.77;49.59
42671;BME280;28283;55.426;37.756;2023-04-23T03:29:54;99298.28;;;7.78;49.43
42671;BME280;28283;55.426;37.756;2023-04-23T03:34:55;99292.28;;;7.76;49.37
42671;BME280;28283;55.426;37.756;2023-04-23T03:39:56;99307.78;;;7.95;49.26
42671;BME280;28283;55.426;37.756;2023-04-23T03:44:57;99277.97;;;7.83;49.50
42671;BME280;28283;55.426;37.756;2023-04-23T03:49:57;99321.44;;;8.15;49.24
42671;BME280;28283;55.426;37.756;2023-04-23T03:54:58;99324.19;;;8.37;49.07
42671;BME280;28283;55.426;37.756;2023-04-23T03:59:59;99318.19;;;8.50;48.80
42671;BME280;28283;55.426;37.756;2023-04-23T04:05:00;99331.44;;;8.73;48.73
42671;BME280;28283;55.426;37.756;2023-04-23T04:10:00;99333.34;;;9.01;48.27
42671;BME280;28283;55.426;37.756;2023-04-23T04:15:03;99326.59;;;9.26;48.36
42671;BME280;28283;55.426;37.756;2023-04-23T04:20:04;99333.16;;;9.73;46.27
42671;BME280;28283;55.426;37.756;2023-04-23T04:25:06;99334.94;;;9.94;46.94
42671;BME280;28283;55.426;37.756;2023-04-23T04:30:07;99337.47;;;10.38;46.83
42671;BME280;28283;55.426;37.756;2023-04-23T04:35:08;99335.13;;;10.76;45.48
42671;BME280;28283;55.426;37.756;2023-04-23T04:40:09;99340.19;;;11.26;44.57
42671;BME280;28283;55.426;37.756;2023-04-23T04:45:11;99349.06;;;11.73;43.44
42671;BME280;28283;55.426;37.756;2023-04-23T04:50:11;99339.53;;;12.04;43.71
42671;BME280;28283;55.426;37.756;2023-04-23T04:55:12;99343.59;;;12.40;42.91
42671;BME280;28283;55.426;37.756;2023-04-23T05:00:24;99356.38;;;12.58;42.53
42671;BME280;28283;55.426;37.756;2023-04-23T05:05:27;99355.06;;;12.15;43.74
42671;BME280;28283;55.426;37.756;2023-04-23T05:10:28;99372.16;;;12.54;43.12
42671;BME280;28283;55.426;37.756;2023-04-23T05:15:29;99358.09;;;12.46;44.08
42671;BME280;28283;55.426;37.756;2023-04-23T05:20:30;99380.00;;;12.56;44.64
42671;BME280;28283;55.426;37.756;2023-04-23T05:25:31;99383.50;;;12.63;44.09
42671;BME280;28283;55.426;37.756;2023-04-23T05:30:33;99374.06;;;12.92;42.38
42671;BME280;28283;55.426;37.756;2023-04-23T05:35:35;99384.53;;;13.14;41.70
42671;BME280;28283;55.426;37.756;2023-04-23T05:40:36;99370.06;;;13.65;39.41
42671;BME280;28283;55.426;37.756;2023-04-23T05:45:36;99390.94;;;14.02;38.90
42671;BME280;28283;55.426;37.756;2023-04-23T05:50:37;99384.53;;;14.40;38.28
42671;BME280;28283;55.426;37.756;2023-04-23T05:55:38;99383.84;;;14.81;37.60
42671;BME280;28283;55.426;37.756;2023-04-23T06:00:38;99382.88;;;15.36;36.68
42671;BME280;28283;55.426;37.756;2023-04-23T06:05:40;99383.66;;;15.67;35.47
42671;BME280;28283;55.426;37.756;2023-04-23T06:10:43;99384.75;;;15.78;34.80
42671;BME280;28283;55.426;37.756;2023-04-23T06:15:43;99383.44;;;15.80;34.83
42671;BME280;28283;55.426;37.756;2023-04-23T06:20:44;99395.31;;;15.68;34.61
42671;BME280;28283;55.426;37.756;2023-04-23T06:25:45;99397.06;;;15.74;35.04
42671;BME280;28283;55.426;37.756;2023-04-23T06:30:45;99385.91;;;16.29;35.30
42671;BME280;28283;55.426;37.756;2023-04-23T06:35:46;99407.34;;;16.54;33.71
42671;BME280;28283;55.426;37.756;2023-04-23T06:40:46;99409.94;;;16.61;33.31
42671;BME280;28283;55.426;37.756;2023-04-23T06:45:47;99369.66;;;16.29;33.00
42671;BME280;28283;55.426;37.756;2023-04-23T06:50:48;99404.66;;;16.31;32.71
42671;BME280;28283;55.426;37.756;2023-04-23T06:55:49;99413.63;;;16.43;33.04
42671;BME280;28283;55.426;37.756;2023-04-23T07:00:50;99414.53;;;16.84;32.15
42671;BME280;28283;55.426;37.756;2023-04-23T07:05:52;99403.88;;;16.83;31.52
42671;BME280;28283;55.426;37.756;2023-04-23T07:10:53;99427.22;;;16.95;31.72
42671;BME280;28283;55.426;37.756;2023-04-23T07:15:53;99417.63;;;17.33;30.86
42671;BME280;28283;55.426;37.756;2023-04-23T07:20:54;99426.81;;;17.15;30.71
42671;BME280;28283;55.426;37.756;2023-04-23T07:25:55;99415.53;;;17.52;30.19
42671;BME280;28283;55.426;37.756;2023-04-23T07:30:55;99425.16;;;16.86;31.15
42671;BME280;28283;55.426;37.756;2023-04-23T07:55:04;99417.13;;;17.82;29.52
42671;BME280;28283;55.426;37.756;2023-04-23T08:00:05;99401.56;;;17.78;29.15
42671;BME280;28283;55.426;37.756;2023-04-23T08:05:08;99405.03;;;17.73;28.91
42671;BME280;28283;55.426;37.756;2023-04-23T08:10:09;99410.44;;;17.56;28.99
42671;BME280;28283;55.426;37.756;2023-04-23T08:15:10;99424.81;;;17.40;29.14
42671;BME280;28283;55.426;37.756;2023-04-23T08:20:11;99421.78;;;17.53;29.02
42671;BME280;28283;55.426;37.756;2023-04-23T08:25:12;99414.56;;;17.75;27.76
42671;BME280;28283;55.426;37.756;2023-04-23T08:30:13;99409.03;;;17.53;27.93
42671;BME280;28283;55.426;37.756;2023-04-23T08:35:13;99419.81;;;17.48;27.87
42671;BME280;28283;55.426;37.756;2023-04-23T08:40:14;99409.84;;;17.71;28.21
42671;BME280;28283;55.426;37.756;2023-04-23T08:45:16;99404.19;;;17.55;28.52
42671;BME280;28283;55.426;37.756;2023-04-23T08:50:18;99416.47;;;17.29;29.24
42671;BME280;28283;55.426;37.756;2023-04-23T08:55:23;99399.94;;;17.48;28.41
42671;BME280;28283;55.426;37.756;2023-04-23T09:00:28;99411.75;;;17.53;28.71
42671;BME280;28283;55.426;37.756;2023-04-23T09:05:32;99400.59;;;18.01;26.91
42671;BME280;28283;55.426;37.756;2023-04-23T09:10:36;99407.47;;;17.58;28.07
42671;BME280;28283;55.426;37.756;2023-04-23T09:15:40;99395.53;;;17.59;28.27
42671;BME280;28283;55.426;37.756;2023-04-23T09:20:43;99385.06;;;18.18;27.59
42671;BME280;28283;55.426;37.756;2023-04-23T09:25:44;99382.06;;;18.37;27.01
42671;BME280;28283;55.426;37.756;2023-04-23T09:30:44;99389.38;;;17.80;27.43
42671;BME280;28283;55.426;37.756;2023-04-23T09:35:45;99407.47;;;17.58;28.44
42671;BME280;28283;55.426;37.756;2023-04-23T09:40:49;99382.03;;;17.81;27.94
42671;BME280;28283;55.426;37.756;2023-04-23T09:45:50;99377.56;;;18.25;27.15
42671;BME280;28283;55.426;37.756;2023-04-23T09:50:53;99364.41;;;18.61;26.94
42671;BME280;28283;55.426;37.756;2023-04-23T09:55:55;99389.09;;;18.33;26.70
42671;BME280;28283;55.426;37.756;2023-04-23T10:01:05;99367.53;;;18.09;27.39
42671;BME280;28283;55.426;37.756;2023-04-23T10:06:07;99379.03;;;18.33;27.08
42671;BME280;28283;55.426;37.756;2023-04-23T10:11:07;99382.16;;;18.25;27.16
42671;BME280;28283;55.426;37.756;2023-04-23T10:16:08;99379.19;;;18.87;26.26
42671;BME280;28283;55.426;37.756;2023-04-23T10:21:10;99386.94;;;18.79;26.12
42671;BME280;28283;55.426;37.756;2023-04-23T10:26:14;99376.88;;;19.01;26.06
42671;BME280;28283;55.426;37.756;2023-04-23T10:31:17;99371.03;;;19.15;26.07
42671;BME280;28283;55.426;37.756;2023-04-23T10:36:19;99332.22;;;19.02;25.79
42671;BME280;28283;55.426;37.756;2023-04-23T10:41:22;99367.38;;;19.31;25.92
42671;BME280;28283;55.426;37.756;2023-04-23T10:46:30;99367.22;;;20.13;25.56
42671;BME280;28283;55.426;37.756;2023-04-23T10:51:35;99343.09;;;20.37;24.69
42671;BME280;28283;55.426;37.756;2023-04-23T10:56:40;99351.78;;;20.34;24.18
42671;BME280;28283;55.426;37.756;2023-04-23T11:01:41;99355.38;;;19.97;24.65
42671;BME280;28283;55.426;37.756;2023-04-23T11:07:05;99350.25;;;20.06;24.65
42671;BME280;28283;55.426;37.756;2023-04-23T11:12:09;99344.22;;;19.98;24.29
42671;BME280;28283;55.426;37.756;2023-04-23T11:17:11;99357.19;;;20.71;24.81
42671;BME280;28283;55.426;37.756;2023-04-23T11:22:14;99350.47;;;21.41;23.55
42671;BME280;28283;55.426;37.756;2023-04-23T11:27:17;99345.59;;;21.53;22.79
42671;BME280;28283;55.426;37.756;2023-04-23T11:32:20;99328.63;;;21.46;22.76
42671;BME280;28283;55.426;37.756;2023-04-23T11:37:21;99311.66;;;21.23;22.72
42671;BME280;28283;55.426;37.756;2023-04-23T11:42:21;99350.50;;;21.77;22.77
42671;BME280;28283;55.426;37.756;2023-04-23T11:47:24;99343.66;;;21.69;22.97
42671;BME280;28283;55.426;37.756;2023-04-23T11:52:25;99344.22;;;21.66;22.41
42671;BME280;28283;55.426;37.756;2023-04-23T11:57:26;99334.00;;;22.38;22.15
42671;BME280;28283;55.426;37.756;2023-04-23T12:02:26;99330.84;;;21.54;22.01
42671;BME280;28283;55.426;37.756;2023-04-23T12:07:31;99341.66;;;20.29;23.67
42671;BME280;28283;55.426;37.756;2023-04-23T12:12:33;99320.53;;;20.09;24.23
42671;BME280;28283;55.426;37.756;2023-04-23T12:17:36;99312.75;;;21.07;23.16
42671;BME280;28283;55.426;37.756;2023-04-23T12:22:37;99332.44;;;21.14;22.75
42671;BME280;28283;55.426;37.756;2023-04-23T12:27:41;99324.50;;;21.38;23.36
42671;BME280;28283;55.426;37.756;2023-04-23T12:32:43;99288.63;;;21.91;21.87
42671;BME280;28283;55.426;37.756;2023-04-23T12:37:44;99314.31;;;22.16;21.43
42671;BME280;28283;55.426;37.756;2023-04-23T12:42:44;99302.09;;;21.62;21.73
42671;BME280;28283;55.426;37.756;2023-04-23T12:47:45;99308.91;;;21.39;22.47
42671;BME280;28283;55.426;37.756;2023-04-23T12:52:45;99309.44;;;22.02;21.62
42671;BME280;28283;55.426;37.756;2023-04-23T12:57:46;99301.81;;;21.22;22.57
42671;BME280;28283;55.426;37.756;2023-04-23T13:02:47;99313.28;;;21.19;22.86
42671;BME280;28283;55.426;37.756;2023-04-23T13:07:47;99267.84;;;20.72;23.09
42671;BME280;28283;55.426;37.756;2023-04-23T13:12:48;99298.56;;;21.66;21.92
42671;BME280;28283;55.426;37.756;2023-04-23T13:17:49;99299.34;;;21.10;22.84
42671;BME280;28283;55.426;37.756;2023-04-23T13:22:49;99297.72;;;21.25;22.36
42671;BME280;28283;55.426;37.756;2023-04-23T13:27:50;99297.09;;;20.82;22.78
42671;BME280;28283;55.426;37.756;2023-04-23T13:32:50;99300.69;;;21.03;22.91
42671;BME280;28283;55.426;37.756;2023-04-23T13:37:51;99282.31;;;20.62;22.97
42671;BME280;28283;55.426;37.756;2023-04-23T13:42:51;99298.91;;;20.50;22.92
42671;BME280;28283;55.426;37.756;2023-04-23T13:47:54;99296.72;;;20.57;23.16
42671;BME280;28283;55.426;37.756;2023-04-23T13:52:55;99295.44;;;20.07;23.60
42671;BME280;28283;55.426;37.756;2023-04-23T13:57:55;99296.72;;;20.52;23.33
42671;BME280;28283;55.426;37.756;2023-04-23T14:02:58;99290.16;;;20.48;23.34
42671;BME280;28283;55.426;37.756;2023-04-23T14:07:58;99291.38;;;20.88;22.97
42671;BME280;28283;55.426;37.756;2023-04-23T14:12:59;99276.97;;;20.25;23.35
42671;BME280;28283;55.426;37.756;2023-04-23T14:18:01;99268.50;;;20.21;23.36
42671;BME280;28283;55.426;37.756;2023-04-23T14:28:28;99288.59;;;20.05;23.49
42671;BME280;28283;55.426;37.756;2023-04-23T14:33:29;99273.63;;;20.12;23.75
42671;BME280;28283;55.426;37.756;2023-04-23T14:38:29;99288.75;;;20.46;23.50
42671;BME280;28283;55.426;37.756;2023-04-23T14:43:30;99285.03;;;20.04;23.74
42671;BME280;28283;55.426;37.756;2023-04-23T14:48:31;99285.78;;;20.52;23.07
42671;BME280;28283;55.426;37.756;2023-04-23T14:53:32;99276.31;;;20.02;23.43
42671;BME280;28283;55.426;37.756;2023-04-23T14:58:32;99283.00;;;20.32;23.43
42671;BME280;28283;55.426;37.756;2023-04-23T15:03:34;99272.03;;;19.74;24.27
42671;BME280;28283;55.426;37.756;2023-04-23T15:08:35;99276.75;;;19.83;24.09
42671;BME280;28283;55.426;37.756;2023-04-23T15:13:55;99278.84;;;20.24;23.82
42671;BME280;28283;55.426;37.756;2023-04-23T15:18:58;99269.91;;;19.81;23.83
42671;BME280;28283;55.426;37.756;2023-04-23T15:23:59;99279.25;;;19.95;23.63
42671;BME280;28283;55.426;37.756;2023-04-23T15:28:59;99275.66;;;19.79;23.88
42671;BME280;28283;55.426;37.756;2023-04-23T15:34:00;99265.31;;;19.49;24.19
42671;BME280;28283;55.426;37.756;2023-04-23T15:39:00;99281.97;;;19.95;23.66
42671;BME280;28283;55.426;37.756;2023-04-23T15:44:01;99265.81;;;19.41;24.51
42671;BME280;28283;55.426;37.756;2023-04-23T15:49:02;99281.34;;;19.78;24.31
42671;BME280;28283;55.426;37.756;2023-04-23T15:54:04;99264.63;;;19.32;24.46
42671;BME280;28283;55.426;37.756;2023-04-23T15:59:07;99262.28;;;19.08;24.60
42671;BME280;28283;55.426;37.756;2023-04-23T16:04:08;99292.84;;;19.15;25.02
42671;BME280;28283;55.426;37.756;2023-04-23T16:09:08;99289.59;;;19.51;24.62
42671;BME280;28283;55.426;37.756;2023-04-23T16:14:09;99286.56;;;19.15;25.06
42671;BME280;28283;55.426;37.756;2023-04-23T16:19:11;99271.38;;;18.92;25.27
42671;BME280;28283;55.426;37.756;2023-04-23T16:24:11;99291.00;;;19.21;24.98
42671;BME280;28283;55.426;37.756;2023-04-23T16:29:12;99292.88;;;19.53;25.27
42671;BME280;28283;55.426;37.756;2023-04-23T16:34:13;99286.00;;;19.13;25.33
42671;BME280;28283;55.426;37.756;2023-04-23T16:39:13;99302.28;;;18.80;25.91
42671;BME280;28283;55.426;37.756;2023-04-23T16:44:14;99301.69;;;18.51;25.86
42671;BME280;28283;55.426;37.756;2023-04-23T16:49:15;99303.53;;;18.23;26.21
42671;BME280;28283;55.426;37.756;2023-04-23T16:54:16;99317.25;;;18.11;26.64
42671;BME280;28283;55.426;37.756;2023-04-23T16:59:17;99304.81;;;17.82;27.10
42671;BME280;28283;55.426;37.756;2023-04-23T17:04:17;99325.19;;;17.79;27.27
42671;BME280;28283;55.426;37.756;2023-04-23T17:09:18;99327.31;;;17.60;27.44
42671;BME280;28283;55.426;37.756;2023-04-23T17:14:19;99341.75;;;17.44;27.83
42671;BME280;28283;55.426;37.756;2023-04-23T17:19:20;99339.84;;;17.44;27.45
42671;BME280;28283;55.426;37.756;2023-04-23T17:24:21;99344.25;;;17.16;28.37
42671;BME280;28283;55.426;37.756;2023-04-23T17:29:21;99330.56;;;16.94;28.15
42671;BME280;28283;55.426;37.756;2023-04-23T17:34:22;99328.94;;;16.82;28.69
42671;BME280;28283;55.426;37.756;2023-04-23T17:39:23;99350.53;;;16.88;28.44
42671;BME280;28283;55.426;37.756;2023-04-23T17:44:27;99348.41;;;16.78;28.72
42671;BME280;28283;55.426;37.756;2023-04-23T17:49:28;99360.91;;;16.79;28.70
42671;BME280;28283;55.426;37.756;2023-04-23T17:54:28;99369.22;;;16.73;28.84
42671;BME280;28283;55.426;37.756;2023-04-23T17:59:29;99359.19;;;16.61;28.83
42671;BME280;28283;55.426;37.756;2023-04-23T18:04:30;99369.25;;;16.61;29.13
42671;BME280;28283;55.426;37.756;2023-04-23T18:09:32;99364.66;;;16.50;29.20
42671;BME280;28283;55.426;37.756;2023-04-23T18:14:32;99363.16;;;16.42;28.81
42671;BME280;28283;55.426;37.756;2023-04-23T18:19:33;99333.25;;;16.13;28.90
42671;BME280;28283;55.426;37.756;2023-04-23T18:24:34;99364.38;;;16.22;29.58
42671;BME280;28283;55.426;37.756;2023-04-23T18:29:35;99386.88;;;16.23;29.77
42671;BME280;28283;55.426;37.756;2023-04-23T18:34:38;99391.47;;;16.11;29.91
42671;BME280;28283;55.426;37.756;2023-04-23T18:39:39;99375.94;;;15.94;30.18
42671;BME280;28283;55.426;37.756;2023-04-23T18:44:40;99386.16;;;16.04;29.22
42671;BME280;28283;55.426;37.756;2023-04-23T18:49:55;99377.22;;;15.80;29.69
42671;BME280;28283;55.426;37.756;2023-04-23T18:54:56;99387.25;;;15.79;30.56
42671;BME280;28283;55.426;37.756;2023-04-23T18:59:57;99389.59;;;15.76;30.50
42671;BME280;28283;55.426;37.756;2023-04-23T19:04:57;99372.69;;;15.62;30.66
42671;BME280;28283;55.426;37.756;2023-04-23T19:09:58;99391.19;;;15.65;30.66
42671;BME280;28283;55.426;37.756;2023-04-23T19:14:59;99397.53;;;15.59;30.83
42671;BME280;28283;55.426;37.756;2023-04-23T19:20:00;99399.75;;;15.50;30.94
42671;BME280;28283;55.426;37.756;2023-04-23T19:25:01;99395.13;;;15.39;31.10
42671;BME280;28283;55.426;37.756;2023-04-23T19:30:03;99383.41;;;15.15;31.43
42671;BME280;28283;55.426;37.756;2023-04-23T19:35:04;99385.13;;;15.09;32.03
42671;BME280;28283;55.426;37.756;2023-04-23T19:40:06;99389.69;;;14.97;32.05
42671;BME280;28283;55.426;37.756;2023-04-23T19:45:06;99389.97;;;15.07;30.92
42671;BME280;28283;55.426;37.756;2023-04-23T19:50:07;99390.31;;;14.80;32.52
42671;BME280;28283;55.426;37.756;2023-04-23T19:55:09;99386.38;;;14.64;32.54
42671;BME280;28283;55.426;37.756;2023-04-23T20:00:10;99391.44;;;14.54;32.74
42671;BME280;28283;55.426;37.756;2023-04-23T20:05:13;99395.88;;;14.48;33.11
42671;BME280;28283;55.426;37.756;2023-04-23T20:10:14;99356.34;;;14.10;33.08
42671;BME280;28283;55.426;37.756;2023-04-23T20:15:14;99394.22;;;14.29;33.29
42671;BME280;28283;55.426;37.756;2023-04-23T20:20:16;99386.16;;;14.04;33.77
42671;BME280;28283;55.426;37.756;2023-04-23T20:25:16;99378.59;;;13.87;34.17
42671;BME280;28283;55.426;37.756;2023-04-23T20:30:17;99395.41;;;13.89;34.02
42671;BME280;28283;55.426;37.756;2023-04-23T20:35:18;99404.50;;;13.95;32.79
42671;BME280;28283;55.426;37.756;2023-04-23T20:40:19;99365.81;;;13.51;34.68
42671;BME280;28283;55.426;37.756;2023-04-23T20:45:20;99399.13;;;13.70;34.21
42671;BME280;28283;55.426;37.756;2023-04-23T20:50:22;99382.94;;;13.63;34.59
42671;BME280;28283;55.426;37.756;2023-04-23T20:55:22;99396.06;;;13.85;33.43
42671;BME280;28283;55.426;37.756;2023-04-23T21:00:23;99400.09;;;13.75;34.10
42671;BME280;28283;55.426;37.756;2023-04-23T21:05:24;99388.97;;;13.65;34.27
42671;BME280;28283;55.426;37.756;2023-04-23T21:10:25;99385.31;;;13.53;34.54
42671;BME280;28283;55.426;37.756;2023-04-23T21:15:26;99389.94;;;13.46;34.53
42671;BME280;28283;55.426;37.756;2023-04-23T21:20:29;99394.56;;;13.39;35.62
42671;BME280;28283;55.426;37.756;2023-04-23T21:25:32;99382.81;;;13.20;34.77
42671;BME280;28283;55.426;37.756;2023-04-23T21:35:40;99387.84;;;13.09;35.43
42671;BME280;28283;55.426;37.756;2023-04-23T21:40:41;99396.50;;;13.25;35.34
42671;BME280;28283;55.426;37.756;2023-04-23T21:45:42;99412.66;;;13.31;35.40
42671;BME280;28283;55.426;37.756;2023-04-23T21:50:43;99417.44;;;13.29;35.91
42671;BME280;28283;55.426;37.756;2023-04-23T21:55:43;99404.88;;;13.10;35.30
42671;BME280;28283;55.426;37.756;2023-04-23T22:00:44;99422.69;;;13.17;35.87
42671;BME280;28283;55.426;37.756;2023-04-23T22:05:45;99417.44;;;13.29;35.04
42671;BME280;28283;55.426;37.756;2023-04-23T22:10:45;99423.66;;;13.36;35.26
42671;BME280;28283;55.426;37.756;2023-04-23T22:15:46;99411.13;;;13.42;35.00
42671;BME280;28283;55.426;37.756;2023-04-23T22:20:48;99421.47;;;13.52;34.92
42671;BME280;28283;55.426;37.756;2023-04-23T22:25:50;99426.44;;;13.55;34.63
42671;BME280;28283;55.426;37.756;2023-04-23T22:30:50;99390.84;;;13.33;35.24
42671;BME280;28283;55.426;37.756;2023-04-23T22:35:51;99434.03;;;13.40;35.03
42671;BME280;28283;55.426;37.756;2023-04-23T22:40:52;99435.72;;;13.27;35.26
42671;BME280;28283;55.426;37.756;2023-04-23T22:45:53;99410.28;;;13.10;35.95
42671;BME280;28283;55.426;37.756;2023-04-23T22:50:53;99432.09;;;13.08;36.20
42671;BME280;28283;55.426;37.756;2023-04-23T22:55:55;99421.78;;;12.92;35.45
42671;BME280;28283;55.426;37.756;2023-04-23T23:00:55;99423.84;;;12.90;36.03
42671;BME280;28283;55.426;37.756;2023-04-23T23:05:56;99417.31;;;12.72;35.74
42671;BME280;28283;55.426;37.756;2023-04-23T23:10:56;99431.00;;;12.71;36.77
42671;BME280;28283;55.426;37.756;2023-04-23T23:15:57;99394.22;;;12.31;37.01
42671;BME280;28283;55.426;37.756;2023-04-23T23:21:02;99416.38;;;12.27;37.30
42671;BME280;28283;55.426;37.756;2023-04-23T23:26:03;99433.41;;;12.00;38.16
42671;BME280;28283;55.426;37.756;2023-04-23T23:31:04;99439.38;;;11.82;38.99
42671;BME280;28283;55.426;37.756;2023-04-23T23:36:05;99439.41;;;11.69;39.59
42671;BME280;28283;55.426;37.756;2023-04-23T23:41:09;99399.41;;;11.46;39.58
42671;BME280;28283;55.426;37.756;2023-04-23T23:46:10;99403.13;;;11.52;39.04
42671;BME280;28283;55.426;37.756;2023-04-23T23:51:11;99426.56;;;11.58;38.57
42671;BME280;28283;55.426;37.756;2023-04-23T23:56:12;99429.03;;;11.73;38.11
